Time;durP1;ratioP1;P1;durP2;ratioP2;P2;SDS_P1;SDS_P2;PMS_P1;PMS_P2;Temp;Humidity;BMP_temperature;BMP_pressure;BME280_temperature;BME280_humidity;BME280_pressure;Samples;Min_cycle;Max_cycle;Signal;HPM_P1;HPM_P2
2024/01/14 00:01:44;;;;;;;34.67;15.00;;;4.20;53.70;;;;;;4967777;28;20203;-57
2024/01/14 00:04:09;;;;;;;34.20;15.60;;;4.20;53.70;;;;;;4968335;28;20274;-56
2024/01/14 00:06:35;;;;;;;30.07;14.23;;;4.30;53.70;;;;;;4965319;28;20219;-54
2024/01/14 00:09:01;;;;;;;26.53;15.00;;;4.40;53.50;;;;;;4968718;28;20188;-58
2024/01/14 00:11:26;;;;;;;29.50;14.80;;;4.40;53.30;;;;;;4967576;28;20202;-60
2024/01/14 00:13:52;;;;;;;30.27;15.50;;;4.40;53.10;;;;;;4968607;28;20445;-58
2024/01/14 00:16:18;;;;;;;25.47;14.33;;;4.40;53.20;;;;;;4966861;28;20223;-57
2024/01/14 00:18:43;;;;;;;28.77;14.73;;;4.40;53.10;;;;;;4968495;28;20269;-58
2024/01/14 00:21:09;;;;;;;31.40;14.30;;;4.50;53.00;;;;;;4966295;28;20616;-59
2024/01/14 00:23:34;;;;;;;26.90;13.77;;;4.40;52.60;;;;;;4983920;28;20662;-55
2024/01/14 00:26:00;;;;;;;36.07;14.50;;;4.40;52.80;;;;;;4966353;28;20291;-58
2024/01/14 00:28:26;;;;;;;29.10;14.50;;;4.30;52.70;;;;;;4970407;28;20206;-59
2024/01/14 00:30:52;;;;;;;24.40;13.10;;;4.40;52.70;;;;;;4975168;28;20876;-58
2024/01/14 00:33:17;;;;;;;31.10;15.13;;;4.40;52.60;;;;;;4976553;28;20188;-56
2024/01/14 00:35:43;;;;;;;32.77;15.00;;;4.40;52.50;;;;;;4962771;28;20311;-55
2024/01/14 00:38:08;;;;;;;29.80;15.53;;;4.50;52.60;;;;;;4967589;28;20202;-57
2024/01/14 00:40:34;;;;;;;29.30;15.10;;;4.50;52.60;;;;;;4962584;28;20202;-55
2024/01/14 00:43:00;;;;;;;35.53;15.13;;;4.50;52.50;;;;;;4964553;28;20195;-56
2024/01/14 00:45:26;;;;;;;35.90;15.00;;;4.60;52.40;;;;;;4965556;28;20492;-58
2024/01/14 00:47:51;;;;;;;27.80;14.70;;;4.60;52.30;;;;;;4967475;28;20179;-56
2024/01/14 00:50:17;;;;;;;31.13;15.13;;;4.50;52.40;;;;;;4969689;28;20443;-58
2024/01/14 00:52:43;;;;;;;25.63;14.67;;;4.50;52.50;;;;;;4964603;28;20226;-58
2024/01/14 00:55:09;;;;;;;32.90;16.43;;;4.60;52.50;;;;;;4969451;28;20212;-57
2024/01/14 00:57:34;;;;;;;36.47;16.77;;;4.60;52.40;;;;;;4965507;28;20199;-56
2024/01/14 01:00:00;;;;;;;28.93;15.43;;;4.60;52.50;;;;;;4964235;28;20505;-55
2024/01/14 01:02:25;;;;;;;35.20;15.47;;;4.50;52.40;;;;;;4966659;28;20184;-56
2024/01/14 01:04:51;;;;;;;29.67;15.67;;;4.60;52.40;;;;;;4966171;28;20187;-57
2024/01/14 01:07:17;;;;;;;30.73;16.93;;;4.50;52.40;;;;;;4971890;28;20211;-59
2024/01/14 01:09:42;;;;;;;34.03;14.07;;;4.50;52.60;;;;;;4967465;28;20233;-54
2024/01/14 01:12:08;;;;;;;32.80;14.33;;;4.60;52.50;;;;;;4966334;28;20647;-57
2024/01/14 01:14:33;;;;;;;29.10;15.93;;;4.70;52.40;;;;;;4968090;28;20184;-58
2024/01/14 01:16:59;;;;;;;31.63;16.10;;;4.70;52.30;;;;;;4977817;28;20230;-58
2024/01/14 01:19:24;;;;;;;28.97;15.40;;;4.60;52.30;;;;;;4980373;28;20179;-54
2024/01/14 01:21:51;;;;;;;32.53;15.57;;;4.60;52.30;;;;;;4964224;28;20858;-54
2024/01/14 01:24:17;;;;;;;29.07;14.90;;;4.50;52.50;;;;;;4967192;28;20241;-57
2024/01/14 01:26:42;;;;;;;30.20;15.80;;;4.50;52.60;;;;;;4964515;28;20498;-57
2024/01/14 01:29:08;;;;;;;27.13;15.20;;;4.60;52.60;;;;;;4966104;28;20198;-59
2024/01/14 01:31:33;;;;;;;31.50;15.43;;;4.60;52.50;;;;;;4979557;28;20206;-57
2024/01/14 01:33:59;;;;;;;29.70;14.10;;;4.50;52.70;;;;;;4965261;28;20187;-57
2024/01/14 01:36:25;;;;;;;33.43;16.63;;;4.50;52.80;;;;;;4962995;28;20222;-56
2024/01/14 01:38:50;;;;;;;34.07;14.50;;;4.60;52.70;;;;;;4975178;28;20195;-56
2024/01/14 01:41:16;;;;;;;33.33;16.37;;;4.60;52.60;;;;;;4966398;28;20489;-59
2024/01/14 01:43:41;;;;;;;39.03;15.93;;;4.60;52.60;;;;;;4964547;28;20188;-59
2024/01/14 01:46:07;;;;;;;33.30;17.33;;;4.60;52.50;;;;;;4964952;28;20242;-53
2024/01/14 01:48:33;;;;;;;32.03;16.43;;;4.50;52.70;;;;;;4966044;28;20192;-53
2024/01/14 01:51:00;;;;;;;29.70;15.60;;;4.50;52.70;;;;;;4964809;28;20434;-56
2024/01/14 01:53:26;;;;;;;35.43;16.60;;;4.60;52.60;;;;;;4964799;28;20199;-53
2024/01/14 01:55:52;;;;;;;29.77;16.30;;;4.60;52.60;;;;;;4961150;28;20490;-60
2024/01/14 01:58:19;;;;;;;33.37;15.67;;;4.60;52.60;;;;;;4965803;28;20962;-56
2024/01/14 02:00:45;;;;;;;35.10;17.47;;;4.60;52.60;;;;;;4968611;28;20459;-56
2024/01/14 02:03:11;;;;;;;34.03;16.00;;;4.70;52.70;;;;;;4970787;28;21093;-57
2024/01/14 02:05:42;;;;;;;38.40;17.20;;;4.60;52.60;;;;;;4974246;28;20521;-56
2024/01/14 02:08:08;;;;;;;42.50;19.10;;;4.60;52.60;;;;;;4964816;28;20450;-56
2024/01/14 02:10:33;;;;;;;30.83;16.57;;;4.60;52.60;;;;;;4965589;28;21062;-56
2024/01/14 02:12:59;;;;;;;32.50;15.40;;;4.60;52.60;;;;;;4967038;28;20184;-56
2024/01/14 02:15:25;;;;;;;29.83;16.17;;;4.60;52.60;;;;;;4964457;28;20227;-53
2024/01/14 02:17:50;;;;;;;35.83;18.23;;;4.60;52.70;;;;;;4965035;28;20643;-56
2024/01/14 02:20:16;;;;;;;36.63;19.17;;;4.60;52.70;;;;;;4975835;28;20195;-55
2024/01/14 02:22:44;;;;;;;40.07;17.90;;;4.60;52.70;;;;;;4967734;28;20200;-56
2024/01/14 02:25:11;;;;;;;39.80;18.13;;;4.70;52.70;;;;;;4966480;28;20191;-56
2024/01/14 02:27:37;;;;;;;39.77;17.50;;;4.60;52.70;;;;;;4965082;28;20449;-57
2024/01/14 02:30:03;;;;;;;31.37;16.47;;;4.60;52.70;;;;;;4967560;28;20443;-56
2024/01/14 02:32:29;;;;;;;32.90;16.47;;;4.60;52.70;;;;;;5013918;28;20449;-56
2024/01/14 02:34:54;;;;;;;33.57;15.47;;;4.60;52.60;;;;;;4978684;28;20471;-56
2024/01/14 02:37:20;;;;;;;35.67;16.10;;;4.60;52.60;;;;;;4978581;28;20211;-55
2024/01/14 02:39:46;;;;;;;42.00;19.00;;;4.60;52.50;;;;;;4965641;28;20222;-56
2024/01/14 02:42:12;;;;;;;35.27;16.10;;;4.60;52.50;;;;;;4976038;28;20256;-56
2024/01/14 02:44:37;;;;;;;39.40;17.57;;;4.60;52.40;;;;;;4973796;28;20665;-57
2024/01/14 02:47:03;;;;;;;36.33;17.40;;;4.60;52.50;;;;;;4963760;28;20482;-56
2024/01/14 02:49:29;;;;;;;34.53;18.67;;;4.60;52.40;;;;;;4962815;28;20200;-56
2024/01/14 02:51:54;;;;;;;34.80;16.50;;;4.60;52.40;;;;;;4961936;28;20678;-53
2024/01/14 02:54:20;;;;;;;32.23;17.30;;;4.60;52.40;;;;;;4968117;28;20558;-56
2024/01/14 02:56:45;;;;;;;39.60;17.57;;;4.60;52.50;;;;;;4964387;28;20211;-56
2024/01/14 02:59:11;;;;;;;34.63;16.50;;;4.50;52.60;;;;;;4964797;28;20239;-57
2024/01/14 03:01:44;;;;;;;34.27;17.07;;;4.60;52.60;;;;;;4965064;28;20195;-55
2024/01/14 03:04:09;;;;;;;30.97;16.67;;;4.60;52.60;;;;;;4965871;28;20237;-56
2024/01/14 03:06:35;;;;;;;33.30;16.70;;;4.60;52.50;;;;;;4966152;28;21367;-58
2024/01/14 03:09:01;;;;;;;39.20;18.17;;;4.60;52.50;;;;;;4978545;28;20559;-57
2024/01/14 03:11:26;;;;;;;35.00;16.47;;;4.60;52.40;;;;;;4967555;28;20658;-55
2024/01/14 03:13:52;;;;;;;37.30;17.30;;;4.60;52.40;;;;;;4968284;28;20192;-56
2024/01/14 03:16:18;;;;;;;32.33;15.17;;;4.50;52.40;;;;;;4967807;28;20215;-56
2024/01/14 03:18:44;;;;;;;31.90;16.60;;;4.50;52.30;;;;;;4971705;28;20192;-56
2024/01/14 03:21:19;;;;;;;32.63;16.17;;;4.50;52.30;;;;;;4965734;28;20455;-54
2024/01/14 03:23:45;;;;;;;32.30;17.10;;;4.50;52.40;;;;;;4980010;28;20187;-57
2024/01/14 03:26:10;;;;;;;32.17;14.90;;;4.50;52.30;;;;;;4967806;28;20806;-56
2024/01/14 03:28:36;;;;;;;33.30;15.63;;;4.30;52.60;;;;;;4968367;28;20512;-56
2024/01/14 03:31:02;;;;;;;28.87;16.53;;;4.30;52.70;;;;;;4965839;28;20188;-57
2024/01/14 03:33:27;;;;;;;33.60;15.57;;;4.30;52.60;;;;;;4968040;28;20233;-56
2024/01/14 03:35:54;;;;;;;31.93;15.87;;;4.30;52.70;;;;;;4967896;28;20881;-54
2024/01/14 03:38:19;;;;;;;38.70;17.00;;;4.20;53.00;;;;;;4987829;28;20668;-55
2024/01/14 03:40:46;;;;;;;33.57;16.17;;;4.30;52.80;;;;;;4972132;28;20522;-56
2024/01/14 03:43:11;;;;;;;36.70;16.10;;;4.40;52.60;;;;;;4967320;28;20191;-55
2024/01/14 03:45:37;;;;;;;36.10;16.53;;;4.40;52.50;;;;;;4964829;28;20467;-57
2024/01/14 03:48:03;;;;;;;36.10;15.50;;;4.40;52.30;;;;;;4968069;28;20655;-56
2024/01/14 03:50:29;;;;;;;34.90;16.60;;;4.30;52.20;;;;;;4965405;28;20679;-55
2024/01/14 03:52:54;;;;;;;34.43;16.13;;;4.10;52.50;;;;;;4966845;28;20450;-56
2024/01/14 03:55:20;;;;;;;31.03;16.57;;;4.10;52.70;;;;;;4966216;28;20230;-56
2024/01/14 03:57:45;;;;;;;34.40;15.93;;;4.10;53.40;;;;;;4967644;28;20198;-55
2024/01/14 04:00:12;;;;;;;33.67;16.10;;;4.10;52.80;;;;;;4970764;28;20709;-55
2024/01/14 04:02:38;;;;;;;34.43;16.37;;;4.00;53.10;;;;;;4965528;28;20683;-56
2024/01/14 04:05:04;;;;;;;38.00;16.90;;;4.10;53.10;;;;;;4975685;28;20458;-56
2024/01/14 04:07:30;;;;;;;31.67;15.93;;;4.10;52.90;;;;;;4966860;28;20446;-57
2024/01/14 04:09:55;;;;;;;38.93;15.53;;;3.90;52.90;;;;;;4969474;28;20825;-57
2024/01/14 04:12:21;;;;;;;37.97;17.90;;;3.80;53.30;;;;;;4970344;28;20237;-56
2024/01/14 04:14:47;;;;;;;38.43;16.10;;;3.70;53.60;;;;;;4969583;28;20207;-55
2024/01/14 04:17:12;;;;;;;40.93;18.13;;;3.70;53.60;;;;;;4967851;28;20207;-54
2024/01/14 04:19:38;;;;;;;37.03;17.77;;;3.60;54.10;;;;;;4965609;28;20359;-55
2024/01/14 04:22:04;;;;;;;35.73;17.30;;;3.60;54.00;;;;;;4967729;28;20841;-56
2024/01/14 04:24:29;;;;;;;38.60;16.70;;;3.60;54.00;;;;;;4964987;28;20237;-55
2024/01/14 04:26:55;;;;;;;39.57;17.87;;;3.60;53.90;;;;;;4972258;28;20208;-57
2024/01/14 04:29:20;;;;;;;36.77;17.30;;;3.60;53.80;;;;;;4967126;28;20223;-56
2024/01/14 04:31:46;;;;;;;44.70;18.17;;;3.60;54.00;;;;;;4967385;28;20201;-54
2024/01/14 04:34:11;;;;;;;37.63;15.63;;;3.60;54.00;;;;;;4964416;28;20191;-56
2024/01/14 04:36:37;;;;;;;35.83;16.10;;;3.60;53.90;;;;;;4963435;28;20643;-56
2024/01/14 04:39:03;;;;;;;39.77;17.67;;;3.40;54.20;;;;;;4970473;28;20180;-54
2024/01/14 04:41:28;;;;;;;38.73;17.30;;;3.30;54.50;;;;;;4967519;28;20282;-56
2024/01/14 04:43:54;;;;;;;37.67;17.07;;;3.40;54.60;;;;;;4976414;28;20609;-57
2024/01/14 04:46:20;;;;;;;43.20;18.37;;;3.60;54.40;;;;;;4965603;28;20776;-57
2024/01/14 04:48:45;;;;;;;36.00;16.70;;;3.70;54.10;;;;;;4967231;28;20240;-56
2024/01/14 04:51:11;;;;;;;41.70;18.87;;;3.80;53.80;;;;;;4965403;28;20458;-56
2024/01/14 04:53:37;;;;;;;37.07;16.00;;;3.80;53.50;;;;;;4965355;28;20211;-57
2024/01/14 04:56:07;;;;;;;35.93;16.50;;;3.90;53.50;;;;;;4971331;28;20586;-54
2024/01/14 04:58:32;;;;;;;37.17;15.87;;;3.90;53.50;;;;;;4964260;28;20203;-53
2024/01/14 05:00:58;;;;;;;34.20;16.20;;;3.90;53.50;;;;;;4966502;28;20471;-57
2024/01/14 05:03:24;;;;;;;39.73;16.77;;;3.90;53.60;;;;;;4965373;28;20660;-54
2024/01/14 05:05:49;;;;;;;38.93;16.43;;;3.90;53.50;;;;;;4964389;28;20207;-56
2024/01/14 05:08:15;;;;;;;41.10;17.60;;;3.90;53.80;;;;;;4980347;28;20202;-57
2024/01/14 05:10:40;;;;;;;40.80;17.00;;;3.90;53.50;;;;;;4963095;28;20194;-57
2024/01/14 05:13:06;;;;;;;34.87;18.03;;;3.80;53.90;;;;;;4965903;28;20191;-56
2024/01/14 05:15:31;;;;;;;42.13;18.17;;;3.80;53.90;;;;;;4968083;28;20223;-54
2024/01/14 05:17:57;;;;;;;40.90;17.20;;;3.80;53.90;;;;;;4974490;28;20252;-55
2024/01/14 05:20:23;;;;;;;49.60;19.77;;;3.70;53.90;;;;;;4967090;28;20206;-56
2024/01/14 05:22:48;;;;;;;36.90;16.50;;;3.50;54.20;;;;;;4966372;28;20457;-56
2024/01/14 05:25:14;;;;;;;46.87;18.57;;;3.40;54.50;;;;;;4963702;28;20190;-58
2024/01/14 05:27:39;;;;;;;37.53;17.90;;;3.50;54.70;;;;;;4964648;28;20270;-56
2024/01/14 05:30:06;;;;;;;34.43;16.40;;;3.60;54.50;;;;;;4963897;28;20973;-56
2024/01/14 05:32:31;;;;;;;40.93;19.23;;;3.60;54.40;;;;;;4964247;28;20184;-57
2024/01/14 05:34:57;;;;;;;39.60;17.70;;;3.50;54.50;;;;;;4965054;28;20524;-56
2024/01/14 05:37:23;;;;;;;48.70;23.83;;;3.50;54.60;;;;;;4965031;28;20215;-55
2024/01/14 05:39:48;;;;;;;52.87;26.20;;;3.40;54.70;;;;;;4965570;28;20191;-53
2024/01/14 05:42:14;;;;;;;37.47;18.87;;;3.50;54.80;;;;;;4966317;28;20183;-53
2024/01/14 05:44:40;;;;;;;36.37;18.63;;;3.60;54.70;;;;;;4966609;28;20202;-57
2024/01/14 05:47:05;;;;;;;40.57;17.80;;;3.60;54.50;;;;;;4962515;28;20207;-56
2024/01/14 05:49:31;;;;;;;39.23;17.80;;;3.60;54.50;;;;;;4965738;28;20262;-56
2024/01/14 05:51:57;;;;;;;41.20;19.30;;;3.60;54.50;;;;;;4973278;28;20272;-56
2024/01/14 05:54:22;;;;;;;37.27;16.83;;;3.50;54.50;;;;;;4966669;28;20198;-55
2024/01/14 05:56:48;;;;;;;33.80;18.50;;;3.50;54.60;;;;;;4965416;28;20269;-55
2024/01/14 05:59:13;;;;;;;38.90;18.90;;;3.30;54.70;;;;;;4967587;28;20190;-55
2024/01/14 06:01:39;;;;;;;44.67;19.67;;;3.10;55.10;;;;;;4965945;28;20199;-56
2024/01/14 06:04:05;;;;;;;38.20;16.57;;;3.00;55.30;;;;;;4964925;28;20187;-55
2024/01/14 06:06:30;;;;;;;42.43;20.20;;;3.20;55.40;;;;;;4966574;28;20207;-56
2024/01/14 06:08:56;;;;;;;45.70;18.47;;;3.40;55.20;;;;;;4965119;28;20180;-53
2024/01/14 06:11:21;;;;;;;40.27;19.20;;;3.60;54.80;;;;;;4964240;28;20213;-55
2024/01/14 06:13:47;;;;;;;43.40;18.40;;;3.70;54.50;;;;;;4964584;28;20297;-55
2024/01/14 06:16:12;;;;;;;44.33;18.40;;;3.60;54.20;;;;;;4964079;28;20211;-53
2024/01/14 06:18:41;;;;;;;38.73;17.77;;;3.60;54.20;;;;;;4965714;28;20195;-55
2024/01/14 06:21:07;;;;;;;38.03;16.77;;;3.60;54.30;;;;;;4965199;28;20710;-56
2024/01/14 06:23:32;;;;;;;34.17;16.23;;;3.50;54.20;;;;;;4979249;28;20471;-56
2024/01/14 06:25:58;;;;;;;40.43;17.30;;;3.50;54.20;;;;;;4963877;28;20285;-54
2024/01/14 06:28:24;;;;;;;39.10;17.60;;;3.60;54.30;;;;;;4970272;28;20218;-56
2024/01/14 06:30:49;;;;;;;37.80;18.43;;;3.60;54.30;;;;;;4975098;28;20183;-55
2024/01/14 06:33:15;;;;;;;38.53;17.57;;;3.50;54.10;;;;;;4966191;28;20198;-57
2024/01/14 06:35:40;;;;;;;32.93;15.73;;;3.70;54.20;;;;;;4962347;28;20238;-56
2024/01/14 06:38:08;;;;;;;36.93;19.00;;;3.60;53.90;;;;;;4964930;28;20207;-56
2024/01/14 06:40:33;;;;;;;38.07;15.40;;;3.40;54.10;;;;;;4974322;28;20734;-56
2024/01/14 06:42:59;;;;;;;38.50;16.20;;;3.40;54.90;;;;;;4966186;28;20489;-53
2024/01/14 06:45:25;;;;;;;37.50;17.60;;;3.60;55.20;;;;;;4966337;28;20303;-57
2024/01/14 06:47:50;;;;;;;34.03;15.73;;;3.70;54.50;;;;;;4969445;28;20237;-57
2024/01/14 06:50:16;;;;;;;45.23;17.30;;;3.80;54.50;;;;;;4983162;28;20743;-56
2024/01/14 06:52:42;;;;;;;36.37;17.10;;;3.80;54.00;;;;;;4970198;28;20196;-56
2024/01/14 06:55:10;;;;;;;46.93;17.50;;;3.50;53.90;;;;;;4968515;28;20711;-56
2024/01/14 06:57:36;;;;;;;37.77;16.73;;;3.40;54.10;;;;;;4969301;28;20450;-57
2024/01/14 07:00:05;;;;;;;38.03;17.30;;;3.40;54.00;;;;;;4962799;28;20849;-51
2024/01/14 07:02:31;;;;;;;41.90;18.57;;;3.40;53.90;;;;;;4965653;28;20266;-55
2024/01/14 07:04:57;;;;;;;35.93;15.73;;;3.40;53.70;;;;;;4967753;28;20513;-56
2024/01/14 07:07:22;;;;;;;37.40;18.13;;;3.10;53.90;;;;;;4966359;28;20207;-56
2024/01/14 07:09:48;;;;;;;35.83;16.80;;;3.00;54.40;;;;;;4968166;28;20204;-58
2024/01/14 07:12:14;;;;;;;35.20;17.60;;;3.00;54.30;;;;;;4966059;28;20246;-56
2024/01/14 07:14:40;;;;;;;38.43;18.43;;;2.90;54.30;;;;;;4968641;28;20221;-56
2024/01/14 07:17:05;;;;;;;37.30;17.07;;;2.90;54.70;;;;;;4976946;28;20501;-54
2024/01/14 07:19:31;;;;;;;38.80;17.90;;;2.80;54.90;;;;;;4969839;28;20510;-54
2024/01/14 07:21:56;;;;;;;32.17;17.17;;;3.00;54.80;;;;;;4973825;28;20599;-56
2024/01/14 07:24:22;;;;;;;34.63;15.00;;;3.20;54.70;;;;;;4969623;28;20656;-58
2024/01/14 07:26:48;;;;;;;39.93;17.00;;;3.30;54.20;;;;;;4967341;28;20242;-58
2024/01/14 07:29:14;;;;;;;33.97;15.50;;;3.30;54.00;;;;;;4966974;28;20897;-55
2024/01/14 07:31:39;;;;;;;35.77;18.53;;;3.40;54.00;;;;;;4960678;28;20663;-56
2024/01/14 07:34:05;;;;;;;39.13;17.00;;;3.40;53.70;;;;;;4971219;28;20674;-59
2024/01/14 07:36:32;;;;;;;34.57;15.10;;;3.50;53.50;;;;;;4966934;28;20219;-59
2024/01/14 07:38:58;;;;;;;37.50;17.63;;;3.50;53.50;;;;;;4976703;28;20442;-57
2024/01/14 07:41:24;;;;;;;35.47;16.17;;;3.60;53.50;;;;;;4967001;28;20489;-55
2024/01/14 07:43:50;;;;;;;34.23;17.23;;;3.60;53.30;;;;;;4963068;28;21288;-57
2024/01/14 07:46:16;;;;;;;31.37;15.00;;;3.60;53.10;;;;;;4965824;28;21158;-58
2024/01/14 07:48:42;;;;;;;36.17;17.17;;;3.60;52.90;;;;;;4972541;28;20453;-59
2024/01/14 07:51:08;;;;;;;34.60;15.37;;;3.60;52.70;;;;;;4972583;28;20187;-56
2024/01/14 07:53:34;;;;;;;30.73;16.77;;;3.60;52.90;;;;;;4963409;28;20450;-58
2024/01/14 07:56:02;;;;;;;36.67;15.53;;;3.60;52.60;;;;;;4966936;28;20223;-55
2024/01/14 07:58:28;;;;;;;29.10;14.97;;;3.60;52.70;;;;;;4968514;28;20973;-57
2024/01/14 08:00:53;;;;;;;32.00;16.03;;;3.70;52.50;;;;;;4971319;28;20924;-55
2024/01/14 08:03:19;;;;;;;36.50;15.50;;;3.80;52.30;;;;;;4965119;28;20196;-57
2024/01/14 08:05:45;;;;;;;35.23;16.03;;;3.80;52.10;;;;;;4964438;28;20211;-56
2024/01/14 08:08:12;;;;;;;34.40;15.23;;;3.80;52.20;;;;;;4968987;28;20286;-55
2024/01/14 08:10:38;;;;;;;40.90;16.10;;;3.70;52.30;;;;;;4979757;28;20447;-55
2024/01/14 08:13:04;;;;;;;32.30;16.20;;;3.70;52.40;;;;;;4965462;28;20455;-55
2024/01/14 08:15:30;;;;;;;32.83;15.07;;;3.60;52.50;;;;;;4984192;28;21033;-52
2024/01/14 08:17:55;;;;;;;42.00;18.10;;;3.60;52.70;;;;;;4969393;28;20183;-55
2024/01/14 08:20:21;;;;;;;32.83;16.20;;;3.50;52.80;;;;;;4967744;28;20187;-55
2024/01/14 08:22:46;;;;;;;34.03;15.77;;;3.40;52.90;;;;;;4968486;28;20184;-55
2024/01/14 08:25:12;;;;;;;38.57;15.50;;;3.40;53.20;;;;;;4982323;28;20214;-54
2024/01/14 08:27:38;;;;;;;35.80;16.07;;;3.40;53.10;;;;;;4968433;28;20214;-53
2024/01/14 08:30:06;;;;;;;35.20;17.73;;;3.50;53.00;;;;;;4971288;28;20726;-55
2024/01/14 08:32:31;;;;;;;33.60;16.57;;;3.60;53.00;;;;;;4978879;28;20510;-55
2024/01/14 08:34:57;;;;;;;33.57;16.00;;;3.50;53.10;;;;;;4967396;28;20530;-59
2024/01/14 08:37:23;;;;;;;32.17;16.40;;;3.50;53.10;;;;;;4982032;28;20361;-55
2024/01/14 08:39:50;;;;;;;38.03;17.47;;;3.60;53.20;;;;;;4965596;28;20616;-57
2024/01/14 08:42:19;;;;;;;36.43;17.87;;;3.00;53.20;;;;;;4967055;28;20449;-57
2024/01/14 08:44:44;;;;;;;35.50;16.40;;;3.00;54.20;;;;;;4967375;28;20446;-57
2024/01/14 08:47:10;;;;;;;40.10;16.37;;;3.20;54.20;;;;;;4966406;28;20536;-57
2024/01/14 08:49:36;;;;;;;36.27;16.20;;;3.40;53.80;;;;;;4969691;28;20203;-55
2024/01/14 08:52:01;;;;;;;41.27;18.10;;;3.20;53.50;;;;;;4966446;28;20184;-55
2024/01/14 08:54:36;;;;;;;37.33;17.50;;;2.80;54.30;;;;;;4967865;28;20218;-58
2024/01/14 08:57:01;;;;;;;42.87;18.40;;;2.70;55.30;;;;;;4963057;28;20210;-56
2024/01/14 08:59:27;;;;;;;42.30;17.33;;;2.80;55.30;;;;;;4966611;28;20443;-57
2024/01/14 09:01:53;;;;;;;38.73;17.53;;;3.00;55.20;;;;;;4968806;28;20192;-58
2024/01/14 09:04:19;;;;;;;40.30;18.73;;;3.10;54.80;;;;;;4976569;28;20248;-57
2024/01/14 09:06:45;;;;;;;37.53;18.23;;;3.00;54.30;;;;;;4967080;28;20264;-59
2024/01/14 09:09:11;;;;;;;40.73;18.53;;;2.90;54.70;;;;;;4967134;28;20438;-56
2024/01/14 09:11:38;;;;;;;36.70;16.83;;;2.90;54.90;;;;;;4963001;28;20435;-55
2024/01/14 09:14:04;;;;;;;37.90;16.80;;;3.00;54.60;;;;;;4977180;28;20481;-56
2024/01/14 09:16:30;;;;;;;36.70;16.67;;;3.10;54.60;;;;;;4967282;28;20483;-58
2024/01/14 09:18:55;;;;;;;37.30;19.23;;;3.20;54.30;;;;;;4966814;28;20430;-61
2024/01/14 09:21:21;;;;;;;39.43;18.27;;;3.30;54.20;;;;;;4964737;28;20237;-58
2024/01/14 09:23:47;;;;;;;41.70;18.80;;;3.40;54.00;;;;;;4968312;28;20654;-59
2024/01/14 09:26:13;;;;;;;38.20;18.80;;;2.90;53.90;;;;;;4968025;28;20682;-57
2024/01/14 09:28:38;;;;;;;36.20;18.07;;;2.80;55.10;;;;;;4968165;28;20446;-56
2024/01/14 09:31:05;;;;;;;40.90;18.97;;;2.80;55.50;;;;;;4967386;28;20252;-58
2024/01/14 09:33:31;;;;;;;37.80;19.00;;;2.70;55.90;;;;;;4967265;28;20207;-57
2024/01/14 09:35:56;;;;;;;39.00;17.50;;;2.70;56.20;;;;;;4964298;28;20533;-56
2024/01/14 09:38:22;;;;;;;37.77;19.10;;;2.80;55.40;;;;;;4971375;28;20787;-57
2024/01/14 09:41:01;;;;;;;38.27;19.43;;;2.60;55.40;;;;;;4965287;28;20184;-57
2024/01/14 09:43:29;;;;;;;36.20;18.53;;;2.60;55.80;;;;;;4964685;28;20187;-56
2024/01/14 09:45:54;;;;;;;35.43;18.20;;;2.60;55.80;;;;;;4964594;28;20901;-56
2024/01/14 09:48:20;;;;;;;37.60;19.57;;;2.80;55.50;;;;;;4968028;28;20455;-57
2024/01/14 09:50:47;;;;;;;46.20;19.53;;;3.10;55.40;;;;;;4966769;28;20198;-60
2024/01/14 09:53:15;;;;;;;43.63;18.33;;;3.10;54.70;;;;;;4967636;28;20462;-58
2024/01/14 09:55:41;;;;;;;47.13;20.73;;;3.40;54.40;;;;;;4966039;28;20565;-58
2024/01/14 09:58:06;;;;;;;39.70;20.40;;;3.30;54.20;;;;;;4966037;28;20890;-60
2024/01/14 10:00:38;;;;;;;42.87;20.47;;;3.30;54.00;;;;;;4966431;28;20187;-60
2024/01/14 10:03:05;;;;;;;39.10;18.10;;;3.50;54.00;;;;;;4975088;28;20207;-56
2024/01/14 10:05:31;;;;;;;43.83;17.80;;;3.50;53.80;;;;;;4967011;28;20897;-59
2024/01/14 10:07:56;;;;;;;40.50;18.60;;;3.70;53.40;;;;;;4967858;28;20453;-58
2024/01/14 10:10:22;;;;;;;43.27;19.67;;;3.60;53.00;;;;;;4966762;28;20569;-61
2024/01/14 10:12:48;;;;;;;38.87;19.27;;;3.60;53.30;;;;;;4968787;28;20182;-59
2024/01/14 10:15:13;;;;;;;34.43;18.20;;;3.70;53.20;;;;;;4970328;28;20871;-55
2024/01/14 10:17:39;;;;;;;38.87;18.50;;;3.80;52.70;;;;;;4970217;28;20553;-58
2024/01/14 10:20:06;;;;;;;36.30;18.00;;;3.90;52.70;;;;;;4967316;28;20183;-60
2024/01/14 10:22:33;;;;;;;45.00;21.03;;;3.90;52.60;;;;;;4969323;28;20234;-57
2024/01/14 10:24:58;;;;;;;35.60;20.23;;;4.10;52.40;;;;;;4970000;28;20458;-60
2024/01/14 10:27:25;;;;;;;38.67;17.93;;;4.10;52.40;;;;;;4966507;28;20477;-58
2024/01/14 10:29:51;;;;;;;40.57;18.70;;;4.10;52.20;;;;;;4970669;28;20798;-59
2024/01/14 10:32:18;;;;;;;38.60;19.17;;;4.10;52.20;;;;;;4965815;28;20529;-61
2024/01/14 10:34:45;;;;;;;32.13;17.20;;;4.30;52.20;;;;;;4970940;28;20573;-58
2024/01/14 10:37:11;;;;;;;34.17;18.33;;;4.50;51.80;;;;;;4969664;28;20573;-60
2024/01/14 10:39:38;;;;;;;34.77;17.80;;;4.60;51.30;;;;;;4965788;28;20447;-60
2024/01/14 10:42:04;;;;;;;33.37;18.73;;;4.90;51.30;;;;;;4969718;28;20501;-62
2024/01/14 10:44:31;;;;;;;36.00;18.37;;;5.20;50.60;;;;;;4965447;28;20451;-62
2024/01/14 10:47:03;;;;;;;33.83;18.93;;;5.30;50.00;;;;;;4977146;28;20465;-61
2024/01/14 10:49:30;;;;;;;38.43;20.90;;;5.30;49.10;;;;;;4972600;28;20457;-61
2024/01/14 10:52:11;;;;;;;35.23;18.73;;;5.30;49.30;;;;;;4967395;28;20441;-57
2024/01/14 10:54:49;;;;;;;38.77;20.07;;;5.50;49.40;;;;;;4965147;28;20458;-59
2024/01/14 10:57:27;;;;;;;36.03;19.73;;;5.60;48.90;;;;;;4964431;28;21342;-59
2024/01/14 11:00:00;;;;;;;36.20;17.93;;;5.70;48.70;;;;;;4966619;28;20520;-60
2024/01/14 11:02:28;;;;;;;34.83;18.37;;;5.70;48.20;;;;;;4967914;28;20822;-57
2024/01/14 11:04:55;;;;;;;37.83;19.03;;;5.80;48.60;;;;;;4983201;28;20439;-57
2024/01/14 11:07:22;;;;;;;33.67;19.27;;;6.00;48.20;;;;;;4971088;28;20513;-59
2024/01/14 11:09:49;;;;;;;37.33;20.80;;;5.60;47.60;;;;;;4965541;28;20474;-57
2024/01/14 11:12:20;;;;;;;36.80;19.43;;;5.50;48.60;;;;;;4966043;28;20459;-59
2024/01/14 11:15:05;;;;;;;36.90;19.50;;;5.60;48.70;;;;;;4967409;28;20954;-60
2024/01/14 11:18:09;;;;;;;36.67;18.00;;;5.80;48.20;;;;;;4960550;28;20535;-61
2024/01/14 11:20:38;;;;;;;35.23;18.30;;;6.00;48.40;;;;;;4968022;28;20481;-60
2024/01/14 11:23:05;;;;;;;37.33;18.43;;;6.30;47.50;;;;;;4968216;28;20431;-58
2024/01/14 11:25:32;;;;;;;33.57;17.27;;;6.60;46.70;;;;;;4970027;28;21016;-56
2024/01/14 11:27:58;;;;;;;35.20;20.50;;;6.90;46.20;;;;;;4966411;28;20784;-55
2024/01/14 11:30:46;;;;;;;31.00;18.90;;;7.00;45.50;;;;;;4977970;28;20454;-57
2024/01/14 11:33:31;;;;;;;34.57;18.30;;;7.20;45.50;;;;;;4967286;28;20827;-59
2024/01/14 11:35:58;;;;;;;36.70;18.87;;;7.30;45.20;;;;;;4966086;28;20829;-59
2024/01/14 11:38:45;;;;;;;36.17;18.53;;;7.40;44.60;;;;;;4968915;28;20464;-58
2024/01/14 11:41:35;;;;;;;31.40;17.43;;;7.30;45.00;;;;;;4983985;28;20466;-57
2024/01/14 11:44:14;;;;;;;37.50;19.77;;;7.20;44.90;;;;;;4967775;28;20472;-54
2024/01/14 11:46:47;;;;;;;36.20;19.70;;;7.20;45.40;;;;;;4968799;28;20455;-58
2024/01/14 11:49:18;;;;;;;30.37;19.57;;;7.30;45.30;;;;;;4975190;28;20976;-55
2024/01/14 11:51:57;;;;;;;32.37;17.97;;;7.40;45.20;;;;;;4980717;28;20443;-58
2024/01/14 11:54:24;;;;;;;32.07;18.40;;;7.60;44.70;;;;;;4976855;28;20516;-58
2024/01/14 11:56:50;;;;;;;33.70;19.07;;;7.60;44.20;;;;;;4966490;28;21444;-60
2024/01/14 11:59:17;;;;;;;29.20;17.47;;;7.50;44.70;;;;;;4973415;28;20449;-60
2024/01/14 12:01:43;;;;;;;31.37;18.47;;;7.70;44.50;;;;;;4968628;28;20503;-55
2024/01/14 12:04:08;;;;;;;36.87;19.17;;;7.80;44.10;;;;;;4968724;28;21005;-56
2024/01/14 12:06:45;;;;;;;30.60;17.67;;;7.90;43.70;;;;;;4962554;28;20230;-58
2024/01/14 12:09:12;;;;;;;33.37;18.20;;;8.00;43.70;;;;;;4964421;28;20661;-57
2024/01/14 12:11:39;;;;;;;35.37;20.90;;;8.10;43.60;;;;;;4967281;28;20439;-58
2024/01/14 12:14:05;;;;;;;33.10;18.00;;;8.20;43.40;;;;;;4967104;28;20461;-57
2024/01/14 12:16:31;;;;;;;34.57;19.03;;;8.20;43.30;;;;;;4962235;28;20484;-56
2024/01/14 12:18:57;;;;;;;33.67;18.37;;;8.10;43.10;;;;;;4965779;28;20450;-56
2024/01/14 12:21:24;;;;;;;29.33;18.03;;;8.00;43.40;;;;;;4964708;28;20897;-56
2024/01/14 12:23:52;;;;;;;35.63;20.10;;;8.00;43.60;;;;;;4965873;28;20540;-59
2024/01/14 12:26:18;;;;;;;30.90;16.90;;;7.90;43.10;;;;;;4962207;28;20599;-59
2024/01/14 12:28:44;;;;;;;35.87;18.40;;;8.10;43.20;;;;;;4968768;28;20849;-58
2024/01/14 12:31:19;;;;;;;33.43;18.07;;;8.10;43.00;;;;;;4962371;28;20432;-57
2024/01/14 12:33:45;;;;;;;31.80;18.30;;;8.20;43.00;;;;;;4966550;28;20197;-61